Time;durP1;ratioP1;P1;durP2;ratioP2;P2;SDS_P1;SDS_P2;PMS_P1;PMS_P2;Temp;Humidity;BMP_temperature;BMP_pressure;BME280_temperature;BME280_humidity;BME280_pressure;Samples;Min_cycle;Max_cycle;Signal;HPM_P1;HPM_P2
2024/01/30 00:02:08;;;;;;;35.87;23.53;;;;;;;;;;5047551;28;20056;-65
2024/01/30 00:04:34;;;;;;;32.90;23.37;;;;;;;;;;5047358;28;20419;-65
2024/01/30 00:07:00;;;;;;;35.23;23.10;;;;;;;;;;5048222;28;20077;-65
2024/01/30 00:09:26;;;;;;;32.73;23.43;;;;;;;;;;5047542;28;20403;-65
2024/01/30 00:11:52;;;;;;;38.00;23.77;;;;;;;;;;5044208;28;20091;-65
2024/01/30 00:14:18;;;;;;;34.77;22.67;;;;;;;;;;5047573;28;20045;-65
2024/01/30 00:16:45;;;;;;;35.37;23.30;;;;;;;;;;5047859;28;20139;-65
2024/01/30 00:19:11;;;;;;;46.13;24.13;;;;;;;;;;5046772;28;20145;-65
2024/01/30 00:21:37;;;;;;;37.33;24.87;;;;;;;;;;5047353;28;20511;-65
2024/01/30 00:24:03;;;;;;;36.60;24.47;;;;;;;;;;5047723;28;20083;-65
2024/01/30 00:26:29;;;;;;;41.07;25.27;;;;;;;;;;5047528;28;20049;-65
2024/01/30 00:28:55;;;;;;;35.13;24.27;;;;;;;;;;5048172;28;20037;-65
2024/01/30 00:31:21;;;;;;;40.03;25.33;;;;;;;;;;5047970;28;20040;-65
2024/01/30 00:33:47;;;;;;;36.97;24.27;;;;;;;;;;5048182;28;20045;-65
2024/01/30 00:36:13;;;;;;;36.47;24.77;;;;;;;;;;5048023;28;20411;-65
2024/01/30 00:38:40;;;;;;;46.43;26.63;;;;;;;;;;5048027;28;20037;-65
2024/01/30 00:41:07;;;;;;;39.50;25.73;;;;;;;;;;5048290;28;20045;-65
2024/01/30 00:43:33;;;;;;;43.30;26.43;;;;;;;;;;5046357;28;20499;-65
2024/01/30 00:45:59;;;;;;;38.07;25.50;;;;;;;;;;5048080;28;20090;-65
2024/01/30 00:48:25;;;;;;;45.17;26.90;;;;;;;;;;5047902;28;20459;-65
2024/01/30 00:50:51;;;;;;;39.37;25.87;;;;;;;;;;5047899;28;20041;-65
2024/01/30 00:53:17;;;;;;;38.70;25.43;;;;;;;;;;5047757;28;20056;-65
2024/01/30 00:55:44;;;;;;;38.23;25.77;;;;;;;;;;5049992;28;20563;-65
2024/01/30 00:58:10;;;;;;;38.47;27.03;;;;;;;;;;5051777;28;20045;-65
2024/01/30 01:00:36;;;;;;;43.03;26.43;;;;;;;;;;5052395;28;20045;-65
2024/01/30 01:03:02;;;;;;;44.97;29.57;;;;;;;;;;5052135;28;20115;-65
2024/01/30 01:05:28;;;;;;;47.10;29.07;;;;;;;;;;5051035;28;20041;-65
2024/01/30 01:07:54;;;;;;;39.33;26.27;;;;;;;;;;5051171;28;20045;-65
2024/01/30 01:10:20;;;;;;;43.67;26.47;;;;;;;;;;5031697;28;20088;-65
2024/01/30 01:12:46;;;;;;;44.10;29.57;;;;;;;;;;5032379;28;20077;-65
2024/01/30 01:15:12;;;;;;;47.00;29.87;;;;;;;;;;5031951;28;20049;-65
2024/01/30 01:17:39;;;;;;;49.50;29.80;;;;;;;;;;5032102;28;20348;-65
2024/01/30 01:20:06;;;;;;;39.60;26.80;;;;;;;;;;5032122;28;20154;-65
2024/01/30 01:22:32;;;;;;;43.97;29.03;;;;;;;;;;5045592;28;20567;-65
2024/01/30 01:24:58;;;;;;;43.23;27.20;;;;;;;;;;5051823;28;20522;-65
2024/01/30 01:27:24;;;;;;;44.03;29.03;;;;;;;;;;5051645;28;20051;-65
2024/01/30 01:29:51;;;;;;;45.20;25.40;;;;;;;;;;5051409;28;20194;-65
2024/01/30 01:32:17;;;;;;;42.67;27.47;;;;;;;;;;5051271;28;20052;-65
2024/01/30 01:34:43;;;;;;;40.90;26.70;;;;;;;;;;5051486;28;20490;-65
2024/01/30 01:37:09;;;;;;;44.90;28.83;;;;;;;;;;5050715;28;20045;-65
2024/01/30 01:39:35;;;;;;;43.27;28.23;;;;;;;;;;5051208;28;20348;-65
2024/01/30 01:42:01;;;;;;;49.93;29.27;;;;;;;;;;5051383;28;20548;-65
2024/01/30 01:44:27;;;;;;;43.97;27.73;;;;;;;;;;5050451;28;20104;-65
2024/01/30 01:46:54;;;;;;;42.83;28.00;;;;;;;;;;5050772;28;20049;-65
2024/01/30 01:49:20;;;;;;;38.80;26.53;;;;;;;;;;5051249;28;20134;-65
2024/01/30 01:51:47;;;;;;;39.83;26.03;;;;;;;;;;5051215;28;20415;-65
2024/01/30 01:54:14;;;;;;;40.93;26.30;;;;;;;;;;5051187;28;20106;-65
2024/01/30 01:56:40;;;;;;;42.13;27.03;;;;;;;;;;5051118;28;20097;-65
2024/01/30 01:59:08;;;;;;;42.93;26.73;;;;;;;;;;5049879;28;20420;-65
2024/01/30 02:01:34;;;;;;;42.13;28.20;;;;;;;;;;5050747;28;20101;-65
2024/01/30 02:04:00;;;;;;;39.03;25.70;;;;;;;;;;5051076;28;20076;-65
2024/01/30 02:06:27;;;;;;;41.30;26.83;;;;;;;;;;5049316;28;20075;-65
2024/01/30 02:08:53;;;;;;;46.90;26.27;;;;;;;;;;5051097;28;20126;-65
2024/01/30 02:11:20;;;;;;;41.43;26.77;;;;;;;;;;5050122;28;20056;-65
2024/01/30 02:13:47;;;;;;;43.57;26.60;;;;;;;;;;5051057;28;20041;-65
2024/01/30 02:16:13;;;;;;;45.47;25.40;;;;;;;;;;5050058;28;20047;-65
2024/01/30 02:18:45;;;;;;;39.93;26.63;;;;;;;;;;5051011;28;20411;-65
2024/01/30 02:21:11;;;;;;;40.70;25.93;;;;;;;;;;5050862;28;20123;-65
2024/01/30 02:23:38;;;;;;;38.90;25.80;;;;;;;;;;5050522;28;20055;-65
2024/01/30 02:26:04;;;;;;;41.77;27.00;;;;;;;;;;5049923;28;20044;-65
2024/01/30 02:28:30;;;;;;;45.27;26.27;;;;;;;;;;5050607;28;20119;-65
2024/01/30 03:01:24;;;;;;;38.03;23.57;;;;;;;;;;3324021;28;23164;-65
2024/01/30 03:03:50;;;;;;;34.63;24.97;;;;;;;;;;5029054;28;20049;-65
2024/01/30 03:06:17;;;;;;;35.40;25.23;;;;;;;;;;5030027;28;20099;-65
2024/01/30 03:08:43;;;;;;;38.23;24.70;;;;;;;;;;5029808;28;20132;-65
2024/01/30 03:11:09;;;;;;;39.63;24.87;;;;;;;;;;5030064;28;20056;-65
2024/01/30 03:13:35;;;;;;;37.33;24.50;;;;;;;;;;5029927;28;20045;-65
2024/01/30 03:16:01;;;;;;;39.87;25.47;;;;;;;;;;5029258;28;20041;-65
2024/01/30 03:18:27;;;;;;;40.57;24.40;;;;;;;;;;5043262;28;20049;-65
2024/01/30 03:20:53;;;;;;;37.13;24.00;;;;;;;;;;5049302;28;20044;-65
2024/01/30 03:23:19;;;;;;;41.43;24.60;;;;;;;;;;5049293;28;20084;-65
2024/01/30 03:25:45;;;;;;;36.53;23.37;;;;;;;;;;5049231;28;20055;-65
2024/01/30 03:28:11;;;;;;;40.03;24.93;;;;;;;;;;5049296;28;20523;-65
2024/01/30 03:30:37;;;;;;;38.60;23.33;;;;;;;;;;5049009;28;20045;-65
2024/01/30 03:33:03;;;;;;;34.17;24.53;;;;;;;;;;5049655;28;20131;-65
2024/01/30 03:35:29;;;;;;;34.17;22.77;;;;;;;;;;5049201;28;20084;-65
2024/01/30 03:37:55;;;;;;;37.10;25.23;;;;;;;;;;5049317;28;20068;-65
2024/01/30 03:40:21;;;;;;;35.83;24.27;;;;;;;;;;5047447;28;20445;-65
2024/01/30 03:42:47;;;;;;;36.73;22.87;;;;;;;;;;5049211;28;20037;-65
2024/01/30 03:45:13;;;;;;;34.63;23.70;;;;;;;;;;5048540;28;20049;-65
2024/01/30 03:47:39;;;;;;;33.33;22.13;;;;;;;;;;5049045;28;20102;-65
2024/01/30 03:50:05;;;;;;;28.20;20.70;;;;;;;;;;5047566;28;20556;-65
2024/01/30 03:52:31;;;;;;;32.30;21.53;;;;;;;;;;5049018;28;20068;-65
2024/01/30 03:54:57;;;;;;;26.97;20.47;;;;;;;;;;5048803;28;20053;-65
2024/01/30 03:57:23;;;;;;;31.77;19.57;;;;;;;;;;5048417;28;20443;-65
2024/01/30 03:59:49;;;;;;;33.13;21.73;;;;;;;;;;5048763;28;20053;-65
2024/01/30 04:02:15;;;;;;;28.67;20.13;;;;;;;;;;5048647;28;20053;-65
2024/01/30 04:04:41;;;;;;;24.90;19.70;;;;;;;;;;5047653;28;20061;-65
2024/01/30 04:07:07;;;;;;;27.50;18.87;;;;;;;;;;5048578;28;20163;-65
2024/01/30 04:09:33;;;;;;;33.83;20.57;;;;;;;;;;5047474;28;20044;-65
2024/01/30 04:11:59;;;;;;;28.47;19.37;;;;;;;;;;5048109;28;20044;-65
2024/01/30 04:14:25;;;;;;;24.43;17.90;;;;;;;;;;5048334;28;20151;-65
2024/01/30 04:16:51;;;;;;;22.03;16.10;;;;;;;;;;5048569;28;20064;-65
2024/01/30 04:19:17;;;;;;;32.17;17.03;;;;;;;;;;5047836;28;20045;-65
2024/01/30 04:21:43;;;;;;;25.13;17.40;;;;;;;;;;5047467;28;20044;-65
2024/01/30 04:24:09;;;;;;;25.53;16.63;;;;;;;;;;5048140;28;20131;-65
2024/01/30 04:26:36;;;;;;;23.90;16.40;;;;;;;;;;5048642;28;20146;-65
2024/01/30 04:29:02;;;;;;;24.83;15.47;;;;;;;;;;5048130;28;20553;-65
2024/01/30 04:31:28;;;;;;;23.57;15.27;;;;;;;;;;5047560;28;20410;-65
2024/01/30 04:33:54;;;;;;;23.87;16.53;;;;;;;;;;5047335;28;20044;-65
2024/01/30 04:36:21;;;;;;;22.30;16.07;;;;;;;;;;5047889;28;20180;-65
2024/01/30 04:38:47;;;;;;;23.27;15.80;;;;;;;;;;5048480;28;20102;-65
2024/01/30 04:41:13;;;;;;;22.43;16.00;;;;;;;;;;5047571;28;20127;-65
2024/01/30 04:43:39;;;;;;;20.80;15.57;;;;;;;;;;5047730;28;20049;-65
2024/01/30 04:46:05;;;;;;;21.50;15.23;;;;;;;;;;5047723;28;20051;-65
2024/01/30 04:48:31;;;;;;;22.40;14.70;;;;;;;;;;5047579;28;20052;-65
2024/01/30 04:50:57;;;;;;;26.43;14.47;;;;;;;;;;5047501;28;20040;-65
2024/01/30 04:53:23;;;;;;;29.07;16.23;;;;;;;;;;5047547;28;20446;-65
2024/01/30 04:55:49;;;;;;;21.10;14.03;;;;;;;;;;5048112;28;20141;-65
2024/01/30 04:58:15;;;;;;;20.53;14.30;;;;;;;;;;5047941;28;20128;-65
2024/01/30 05:00:41;;;;;;;27.37;14.37;;;;;;;;;;5046482;28;20040;-65
2024/01/30 05:03:07;;;;;;;19.17;13.67;;;;;;;;;;5046566;28;20056;-65
2024/01/30 05:05:33;;;;;;;24.50;14.70;;;;;;;;;;5048026;28;20056;-65
2024/01/30 05:07:59;;;;;;;20.77;13.67;;;;;;;;;;5047728;28;20125;-65
2024/01/30 05:10:25;;;;;;;21.07;15.27;;;;;;;;;;5047612;28;20478;-65
2024/01/30 05:12:55;;;;;;;19.97;13.37;;;;;;;;;;5047780;28;20056;-65
2024/01/30 05:15:20;;;;;;;19.40;14.63;;;;;;;;;;5047660;28;20048;-65
2024/01/30 05:17:46;;;;;;;19.53;14.77;;;;;;;;;;5046831;28;20427;-65
2024/01/30 05:20:13;;;;;;;23.83;13.53;;;;;;;;;;5047634;28;20041;-65
2024/01/30 05:22:44;;;;;;;21.50;14.30;;;;;;;;;;5047309;28;20456;-65
2024/01/30 05:25:10;;;;;;;19.47;13.27;;;;;;;;;;5047541;28;20053;-65
2024/01/30 05:27:36;;;;;;;21.27;13.40;;;;;;;;;;5047961;28;20127;-65
2024/01/30 05:30:02;;;;;;;17.33;12.67;;;;;;;;;;5047817;28;20045;-65
2024/01/30 05:32:28;;;;;;;19.73;12.43;;;;;;;;;;5047809;28;20549;-65
2024/01/30 05:34:54;;;;;;;17.77;13.43;;;;;;;;;;5046502;28;20042;-65
2024/01/30 05:37:20;;;;;;;18.50;13.17;;;;;;;;;;5047570;28;20419;-65
2024/01/30 05:39:46;;;;;;;20.10;13.23;;;;;;;;;;5047924;28;20041;-65
2024/01/30 05:42:12;;;;;;;18.40;12.23;;;;;;;;;;5048698;28;20081;-65
2024/01/30 05:44:38;;;;;;;18.03;11.50;;;;;;;;;;5050185;28;20044;-65
2024/01/30 05:47:04;;;;;;;17.50;12.53;;;;;;;;;;5051257;28;20128;-65
2024/01/30 05:49:30;;;;;;;17.73;13.00;;;;;;;;;;5051138;28;20483;-65
2024/01/30 05:51:56;;;;;;;21.30;12.13;;;;;;;;;;5051214;28;20045;-65
2024/01/30 05:54:22;;;;;;;16.93;11.73;;;;;;;;;;5051296;28;20037;-65
2024/01/30 05:56:48;;;;;;;20.43;11.83;;;;;;;;;;5050759;28;20502;-65
2024/01/30 05:59:14;;;;;;;18.30;10.87;;;;;;;;;;5051065;28;20068;-65
2024/01/30 06:01:50;;;;;;;20.10;12.17;;;;;;;;;;5050126;28;20534;-65
2024/01/30 06:04:16;;;;;;;17.70;11.53;;;;;;;;;;5050623;28;20053;-65
2024/01/30 06:06:44;;;;;;;17.33;11.87;;;;;;;;;;5049463;28;20470;-65
2024/01/30 06:09:12;;;;;;;18.53;11.53;;;;;;;;;;5050736;28;20086;-65
2024/01/30 06:11:38;;;;;;;18.30;12.33;;;;;;;;;;5050411;28;20084;-65
2024/01/30 06:14:04;;;;;;;19.87;11.37;;;;;;;;;;5050879;28;20053;-65
2024/01/30 06:16:30;;;;;;;21.07;11.80;;;;;;;;;;5050771;28;20052;-65
2024/01/30 06:18:57;;;;;;;19.17;12.80;;;;;;;;;;5050467;28;20037;-65
2024/01/30 06:21:23;;;;;;;18.87;12.70;;;;;;;;;;5050625;28;20492;-65
2024/01/30 06:23:49;;;;;;;19.97;11.90;;;;;;;;;;5050751;28;20045;-65
2024/01/30 06:26:15;;;;;;;19.77;12.43;;;;;;;;;;5050373;28;20142;-65
2024/01/30 06:28:40;;;;;;;18.00;12.47;;;;;;;;;;5050007;28;20037;-65
2024/01/30 06:31:06;;;;;;;20.03;12.93;;;;;;;;;;5050543;28;20040;-65
2024/01/30 06:33:32;;;;;;;19.57;12.10;;;;;;;;;;5049427;28;20415;-65
2024/01/30 06:35:58;;;;;;;17.83;11.13;;;;;;;;;;5050288;28;20045;-65
2024/01/30 06:38:24;;;;;;;17.80;12.07;;;;;;;;;;5049895;28;20465;-65
2024/01/30 06:40:50;;;;;;;18.20;11.40;;;;;;;;;;5049373;28;20076;-65
2024/01/30 06:43:16;;;;;;;17.70;12.20;;;;;;;;;;5049881;28;20132;-65
2024/01/30 06:45:42;;;;;;;17.37;11.53;;;;;;;;;;5049426;28;20123;-65
2024/01/30 06:48:09;;;;;;;16.53;11.90;;;;;;;;;;5048857;28;20048;-65
2024/01/30 06:50:35;;;;;;;18.63;12.07;;;;;;;;;;5048178;28;20484;-65
2024/01/30 06:53:00;;;;;;;21.50;11.27;;;;;;;;;;5049112;28;20048;-65
2024/01/30 06:55:26;;;;;;;13.70;10.70;;;;;;;;;;5049957;28;20052;-65
2024/01/30 06:57:52;;;;;;;20.30;11.83;;;;;;;;;;5049719;28;20051;-65
2024/01/30 07:00:19;;;;;;;19.30;12.93;;;;;;;;;;5049980;28;20053;-64
2024/01/30 07:02:45;;;;;;;16.53;11.90;;;;;;;;;;5049963;28;20056;-64
2024/01/30 07:05:11;;;;;;;19.73;11.43;;;;;;;;;;5049380;28;20052;-64
2024/01/30 07:07:37;;;;;;;19.07;12.57;;;;;;;;;;5049745;28;20110;-64
2024/01/30 07:10:03;;;;;;;17.13;11.00;;;;;;;;;;5049796;28;20084;-65
2024/01/30 07:12:31;;;;;;;17.97;11.93;;;;;;;;;;5049992;28;20049;-64
2024/01/30 07:14:59;;;;;;;20.90;12.70;;;;;;;;;;5049152;28;20049;-64
2024/01/30 07:17:25;;;;;;;19.17;11.90;;;;;;;;;;5049401;28;20048;-64
2024/01/30 07:19:51;;;;;;;18.10;12.50;;;;;;;;;;5049844;28;20128;-64
2024/01/30 07:22:17;;;;;;;20.83;12.40;;;;;;;;;;5049232;28;20127;-65
2024/01/30 07:24:49;;;;;;;19.73;12.83;;;;;;;;;;5048844;28;20735;-64
2024/01/30 07:27:17;;;;;;;17.90;11.87;;;;;;;;;;5048884;28;20053;-65
2024/01/30 07:29:43;;;;;;;18.80;13.07;;;;;;;;;;5048424;28;20049;-65
2024/01/30 07:32:09;;;;;;;19.23;12.50;;;;;;;;;;5049628;28;20045;-65
2024/01/30 07:34:36;;;;;;;19.43;11.40;;;;;;;;;;5043759;28;20073;-64
2024/01/30 07:37:02;;;;;;;17.80;12.07;;;;;;;;;;5029907;28;20757;-65
2024/01/30 07:39:28;;;;;;;17.30;13.07;;;;;;;;;;5029406;28;20106;-64
2024/01/30 07:41:54;;;;;;;16.43;11.97;;;;;;;;;;5038869;28;20049;-64
2024/01/30 07:44:21;;;;;;;18.57;12.13;;;;;;;;;;5048629;28;20049;-64
2024/01/30 07:46:49;;;;;;;18.07;11.57;;;;;;;;;;5048916;28;20037;-64
2024/01/30 07:49:15;;;;;;;18.53;10.80;;;;;;;;;;5049062;28;20071;-64
2024/01/30 07:51:43;;;;;;;17.13;11.60;;;;;;;;;;5048721;28;20051;-64
2024/01/30 07:54:09;;;;;;;18.20;11.93;;;;;;;;;;5048643;28;20574;-64
2024/01/30 07:56:35;;;;;;;15.50;10.27;;;;;;;;;;5048891;28;20044;-65
2024/01/30 07:59:03;;;;;;;16.57;10.87;;;;;;;;;;5047988;28;20036;-65
2024/01/30 08:01:29;;;;;;;20.83;12.00;;;;;;;;;;5048577;28;20215;-65
2024/01/30 08:03:57;;;;;;;14.50;10.80;;;;;;;;;;5048316;28;20136;-64
2024/01/30 08:06:23;;;;;;;14.87;10.53;;;;;;;;;;5046751;28;20041;-64
2024/01/30 08:08:50;;;;;;;18.13;11.07;;;;;;;;;;5045243;28;20147;-65
2024/01/30 08:11:16;;;;;;;18.63;11.20;;;;;;;;;;5048601;28;20049;-65
2024/01/30 08:13:42;;;;;;;16.53;10.43;;;;;;;;;;5048205;28;20051;-64
2024/01/30 08:16:08;;;;;;;17.83;10.93;;;;;;;;;;5047781;28;20499;-64
2024/01/30 08:18:33;;;;;;;14.70;10.17;;;;;;;;;;5045425;28;20072;-64
2024/01/30 08:20:59;;;;;;;15.40;11.17;;;;;;;;;;5048089;28;20056;-65
2024/01/30 08:23:25;;;;;;;16.30;11.20;;;;;;;;;;5046618;28;20045;-65
2024/01/30 08:25:51;;;;;;;16.57;10.53;;;;;;;;;;5046662;28;20487;-64
2024/01/30 08:28:17;;;;;;;15.30;10.00;;;;;;;;;;5044622;28;20106;-64
2024/01/30 08:30:44;;;;;;;20.37;11.90;;;;;;;;;;5046720;28;20045;-65
2024/01/30 08:33:10;;;;;;;14.60;10.13;;;;;;;;;;5046588;28;20045;-65
2024/01/30 08:35:36;;;;;;;15.17;10.37;;;;;;;;;;5046400;28;20059;-65
2024/01/30 08:38:03;;;;;;;13.33;10.23;;;;;;;;;;5047864;28;20071;-64
2024/01/30 08:40:31;;;;;;;14.00;9.93;;;;;;;;;;5047673;28;20091;-64
2024/01/30 08:42:57;;;;;;;15.40;10.37;;;;;;;;;;5047582;28;20060;-64
2024/01/30 08:45:24;;;;;;;13.40;9.87;;;;;;;;;;5047809;28;20049;-65
2024/01/30 08:47:50;;;;;;;16.10;10.53;;;;;;;;;;5048518;28;20490;-65
2024/01/30 08:50:16;;;;;;;16.80;10.40;;;;;;;;;;5048202;28;20052;-64
2024/01/30 08:52:42;;;;;;;14.83;10.47;;;;;;;;;;5047319;28;20628;-64
2024/01/30 08:55:08;;;;;;;24.57;11.10;;;;;;;;;;5047638;28;20049;-64
2024/01/30 08:57:36;;;;;;;19.80;11.27;;;;;;;;;;5047831;28;20056;-65
2024/01/30 09:00:06;;;;;;;15.97;10.20;;;;;;;;;;5047878;28;20582;-65
2024/01/30 09:02:32;;;;;;;15.53;9.87;;;;;;;;;;5047171;28;20061;-64
2024/01/30 09:04:58;;;;;;;14.33;10.57;;;;;;;;;;5046184;28;20049;-65
2024/01/30 09:07:24;;;;;;;16.70;9.87;;;;;;;;;;5046510;28;20041;-65
2024/01/30 09:09:50;;;;;;;16.93;10.57;;;;;;;;;;5046851;28;20045;-65
2024/01/30 09:12:16;;;;;;;16.37;9.47;;;;;;;;;;5045400;28;20064;-65
2024/01/30 09:14:42;;;;;;;13.37;9.93;;;;;;;;;;5048210;28;20041;-65
2024/01/30 09:17:08;;;;;;;12.53;9.40;;;;;;;;;;5048791;28;20572;-65
2024/01/30 09:19:36;;;;;;;12.93;9.70;;;;;;;;;;5052310;28;20118;-65
2024/01/30 09:22:03;;;;;;;15.53;10.47;;;;;;;;;;5050230;28;20037;-64
2024/01/30 09:24:29;;;;;;;14.33;8.90;;;;;;;;;;5049381;28;20041;-64
2024/01/30 09:26:55;;;;;;;14.40;9.97;;;;;;;;;;5050818;28;20071;-65
2024/01/30 09:29:21;;;;;;;16.50;9.80;;;;;;;;;;5051180;28;20044;-65
2024/01/30 09:31:47;;;;;;;15.43;9.33;;;;;;;;;;5051311;28;20417;-65
2024/01/30 09:34:16;;;;;;;13.43;9.73;;;;;;;;;;5049741;28;20041;-65
2024/01/30 09:36:42;;;;;;;14.73;9.60;;;;;;;;;;5050862;28;20067;-65
2024/01/30 09:39:08;;;;;;;13.37;9.27;;;;;;;;;;5050888;28;20202;-65
2024/01/30 09:41:36;;;;;;;19.23;10.33;;;;;;;;;;5051038;28;20057;-65
2024/01/30 09:44:02;;;;;;;11.27;8.47;;;;;;;;;;5051029;28;20083;-65
2024/01/30 09:46:28;;;;;;;18.50;9.70;;;;;;;;;;5050739;28;20052;-65
2024/01/30 09:48:55;;;;;;;14.17;8.87;;;;;;;;;;5049226;28;20095;-65
2024/01/30 09:51:22;;;;;;;15.43;9.27;;;;;;;;;;5050552;28;20048;-65
2024/01/30 09:53:49;;;;;;;17.37;10.40;;;;;;;;;;5051782;28;20049;-65
2024/01/30 09:56:16;;;;;;;19.67;9.60;;;;;;;;;;5048661;28;20053;-65
2024/01/30 09:58:42;;;;;;;15.60;9.60;;;;;;;;;;5056031;28;20065;-65
2024/01/30 10:01:08;;;;;;;13.07;9.00;;;;;;;;;;5050960;28;20080;-65
2024/01/30 10:03:34;;;;;;;13.47;9.13;;;;;;;;;;5050695;28;20111;-65
2024/01/30 10:06:01;;;;;;;17.47;9.27;;;;;;;;;;5049497;28;20060;-65
2024/01/30 10:08:29;;;;;;;13.63;8.33;;;;;;;;;;5049274;28;20103;-65
2024/01/30 10:10:55;;;;;;;14.60;8.77;;;;;;;;;;5048285;28;20442;-65
2024/01/30 10:13:23;;;;;;;15.00;9.37;;;;;;;;;;5050101;28;20045;-65
2024/01/30 10:15:50;;;;;;;19.80;9.30;;;;;;;;;;5050066;28;20057;-65
2024/01/30 10:18:16;;;;;;;13.33;8.93;;;;;;;;;;5050166;28;20045;-65
2024/01/30 10:20:42;;;;;;;17.20;8.60;;;;;;;;;;5045652;28;20055;-65
2024/01/30 10:23:08;;;;;;;15.43;9.13;;;;;;;;;;5049396;28;20408;-65
2024/01/30 10:25:34;;;;;;;17.57;8.73;;;;;;;;;;5050599;28;20530;-65
2024/01/30 10:28:00;;;;;;;14.93;9.07;;;;;;;;;;5046425;28;20029;-65
2024/01/30 10:30:29;;;;;;;15.67;9.00;;;;;;;;;;5048751;28;20044;-65
2024/01/30 10:32:55;;;;;;;18.77;9.73;;;;;;;;;;5048834;28;20045;-65
2024/01/30 10:35:21;;;;;;;17.10;9.77;;;;;;;;;;5048816;28;20045;-65
2024/01/30 10:37:47;;;;;;;17.40;9.53;;;;;;;;;;5049012;28;20105;-65
2024/01/30 10:40:15;;;;;;;19.97;9.70;;;;;;;;;;5049579;28;20053;-65
2024/01/30 10:42:45;;;;;;;20.93;9.37;;;;;;;;;;5047387;28;20415;-64
2024/01/30 10:45:15;;;;;;;15.40;8.23;;;;;;;;;;5048703;28;20111;-65
2024/01/30 10:47:44;;;;;;;15.93;9.50;;;;;;;;;;5049541;28;20507;-65
2024/01/30 10:50:12;;;;;;;14.97;9.03;;;;;;;;;;5048079;28;20041;-64
2024/01/30 10:52:38;;;;;;;13.27;8.50;;;;;;;;;;5049667;28;20138;-65
2024/01/30 10:55:08;;;;;;;14.63;8.13;;;;;;;;;;5049313;28;20052;-64
2024/01/30 10:57:37;;;;;;;16.50;8.30;;;;;;;;;;5049162;28;20045;-65
2024/01/30 11:00:05;;;;;;;15.10;9.37;;;;;;;;;;5049368;28;20041;-65
2024/01/30 11:02:32;;;;;;;14.70;9.40;;;;;;;;;;5046782;28;20080;-65
2024/01/30 11:04:59;;;;;;;14.30;8.63;;;;;;;;;;5049506;28;20499;-64
2024/01/30 11:07:27;;;;;;;12.43;9.23;;;;;;;;;;5047448;28;20099;-65
2024/01/30 11:09:54;;;;;;;15.90;9.23;;;;;;;;;;5048954;28;20045;-65
2024/01/30 11:12:26;;;;;;;19.10;9.70;;;;;;;;;;5047837;28;20045;-65
2024/01/30 11:15:07;;;;;;;13.27;10.03;;;;;;;;;;5048004;28;20080;-65
2024/01/30 11:17:51;;;;;;;16.17;10.33;;;;;;;;;;5049889;28;20048;-65
2024/01/30 11:20:19;;;;;;;20.60;10.70;;;;;;;;;;5049810;28;20114;-65
2024/01/30 11:22:46;;;;;;;20.60;11.33;;;;;;;;;;5055149;28;20582;-65
2024/01/30 11:25:13;;;;;;;24.73;11.27;;;;;;;;;;5057769;28;20521;-64
2024/01/30 11:27:40;;;;;;;14.77;9.57;;;;;;;;;;5048118;28;20470;-65
2024/01/30 11:30:07;;;;;;;15.47;10.03;;;;;;;;;;5043504;28;20048;-65
2024/01/30 11:32:33;;;;;;;18.23;9.73;;;;;;;;;;5049315;28;20459;-65
2024/01/30 11:34:59;;;;;;;18.03;10.17;;;;;;;;;;5046132;28;20045;-64
2024/01/30 11:37:27;;;;;;;18.93;9.93;;;;;;;;;;5036138;28;20047;-64
2024/01/30 11:39:54;;;;;;;17.50;10.63;;;;;;;;;;5045848;28;20052;-65
2024/01/30 11:42:20;;;;;;;20.63;12.70;;;;;;;;;;5044751;28;20474;-64
2024/01/30 11:44:49;;;;;;;15.37;9.33;;;;;;;;;;5045567;28;20076;-64
2024/01/30 11:47:16;;;;;;;16.63;9.83;;;;;;;;;;5026000;28;20041;-65
2024/01/30 11:49:43;;;;;;;12.87;8.97;;;;;;;;;;5026904;28;20524;-64
2024/01/30 11:52:09;;;;;;;16.87;8.93;;;;;;;;;;5043427;28;20052;-64
2024/01/30 11:54:35;;;;;;;14.87;9.00;;;;;;;;;;5027583;28;20407;-65
2024/01/30 11:57:01;;;;;;;17.60;9.60;;;;;;;;;;5028131;28;20049;-65
2024/01/30 11:59:27;;;;;;;13.23;8.93;;;;;;;;;;5027931;28;20048;-65
2024/01/30 12:01:54;;;;;;;14.03;8.30;;;;;;;;;;5028392;28;20097;-64
2024/01/30 12:04:20;;;;;;;15.10;8.37;;;;;;;;;;5043370;28;20504;-64
2024/01/30 12:06:51;;;;;;;11.30;8.50;;;;;;;;;;5027304;28;20099;-65
2024/01/30 12:09:17;;;;;;;15.03;7.80;;;;;;;;;;5028407;28;20045;-65
2024/01/30 12:11:46;;;;;;;15.27;7.83;;;;;;;;;;5028461;28;20132;-65
2024/01/30 12:14:12;;;;;;;12.00;7.00;;;;;;;;;;5027879;28;20049;-65
2024/01/30 12:16:38;;;;;;;16.37;9.10;;;;;;;;;;5043757;28;20049;-65
2024/01/30 12:19:04;;;;;;;12.77;7.73;;;;;;;;;;5028314;28;20052;-65
2024/01/30 12:21:31;;;;;;;15.57;7.20;;;;;;;;;;5028233;28;20045;-65
2024/01/30 12:23:57;;;;;;;12.27;7.40;;;;;;;;;;5028203;28;20163;-65
2024/01/30 12:26:27;;;;;;;12.63;7.43;;;;;;;;;;5027413;28;20407;-65
2024/01/30 12:29:01;;;;;;;21.17;6.77;;;;;;;;;;5027987;28;20487;-65
2024/01/30 12:31:32;;;;;;;11.53;5.80;;;;;;;;;;5028120;28;20534;-65
2024/01/30 12:34:00;;;;;;;14.90;5.77;;;;;;;;;;5028194;28;20053;-65
2024/01/30 12:36:26;;;;;;;8.47;4.67;;;;;;;;;;5027732;28;20324;-65
2024/01/30 12:38:52;;;;;;;12.93;5.63;;;;;;;;;;5027985;28;20048;-65
2024/01/30 12:41:20;;;;;;;10.70;4.60;;;;;;;;;;5027791;28;20091;-65
2024/01/30 12:43:47;;;;;;;11.07;4.60;;;;;;;;;;5028138;28;20048;-65
2024/01/30 12:46:13;;;;;;;13.63;4.73;;;;;;;;;;5028329;28;20053;-65
2024/01/30 12:48:39;;;;;;;11.87;4.07;;;;;;;;;;5027397;28;20053;-65
2024/01/30 12:51:05;;;;;;;13.20;3.47;;;;;;;;;;5027620;28;20496;-64
2024/01/30 12:53:31;;;;;;;7.53;3.93;;;;;;;;;;5028068;28;20124;-65
2024/01/30 12:55:57;;;;;;;11.13;3.50;;;;;;;;;;5028074;28;20045;-65
2024/01/30 12:58:23;;;;;;;5.37;3.23;;;;;;;;;;5026433;28;20049;-65
2024/01/30 13:00:49;;;;;;;8.10;2.80;;;;;;;;;;5027969;28;20152;-64
2024/01/30 13:03:19;;;;;;;10.03;3.30;;;;;;;;;;5027655;28;20050;-65
2024/01/30 13:05:45;;;;;;;5.87;3.23;;;;;;;;;;5027717;28;20053;-65
2024/01/30 13:08:14;;;;;;;5.53;3.40;;;;;;;;;;5027755;28;20148;-64
2024/01/30 13:10:40;;;;;;;6.80;3.00;;;;;;;;;;5027729;28;20549;-65
2024/01/30 13:13:06;;;;;;;6.37;3.60;;;;;;;;;;5027400;28;20189;-65
2024/01/30 13:15:31;;;;;;;8.37;3.43;;;;;;;;;;5027634;28;20132;-65
2024/01/30 13:17:57;;;;;;;7.63;4.07;;;;;;;;;;5027761;28;20049;-65
2024/01/30 13:20:23;;;;;;;6.27;3.53;;;;;;;;;;5027832;28;20150;-65
2024/01/30 13:22:50;;;;;;;11.07;4.13;;;;;;;;;;5027478;28;20140;-65
2024/01/30 13:25:16;;;;;;;11.07;4.40;;;;;;;;;;5027091;28;20057;-65
2024/01/30 13:27:42;;;;;;;7.00;4.13;;;;;;;;;;5027623;28;20056;-65
2024/01/30 13:30:09;;;;;;;9.57;4.03;;;;;;;;;;5027439;28;20077;-65
2024/01/30 13:32:35;;;;;;;10.57;4.63;;;;;;;;;;5027567;28;20076;-65
2024/01/30 13:35:02;;;;;;;8.30;4.60;;;;;;;;;;5026921;28;20042;-65
2024/01/30 13:37:28;;;;;;;8.87;4.37;;;;;;;;;;5027601;28;20504;-65
2024/01/30 13:39:54;;;;;;;11.43;5.13;;;;;;;;;;5027589;28;20104;-65
2024/01/30 13:42:20;;;;;;;11.73;5.00;;;;;;;;;;5027221;28;20060;-65
2024/01/30 13:44:48;;;;;;;9.67;4.60;;;;;;;;;;5026958;28;20049;-64
2024/01/30 13:47:14;;;;;;;8.93;4.43;;;;;;;;;;5027647;28;20415;-64
2024/01/30 13:49:40;;;;;;;12.47;4.23;;;;;;;;;;5027626;28;20482;-64
2024/01/30 13:52:06;;;;;;;7.97;4.53;;;;;;;;;;5027373;28;20076;-64
2024/01/30 13:54:32;;;;;;;13.07;4.13;;;;;;;;;;5027053;28;20435;-65
2024/01/30 13:56:58;;;;;;;6.17;3.40;;;;;;;;;;5027540;28;20053;-65
2024/01/30 13:59:25;;;;;;;5.70;3.20;;;;;;;;;;5027158;28;20107;-65
2024/01/30 14:01:52;;;;;;;8.23;2.57;;;;;;;;;;5027147;28;20045;-64
2024/01/30 14:04:18;;;;;;;8.77;2.60;;;;;;;;;;5030123;28;20057;-65
2024/01/30 14:06:44;;;;;;;9.07;2.90;;;;;;;;;;5030974;28;20045;-65
2024/01/30 14:09:10;;;;;;;4.67;1.63;;;;;;;;;;5045497;28;20045;-65
2024/01/30 14:11:36;;;;;;;3.70;1.23;;;;;;;;;;5030855;28;20049;-65
2024/01/30 14:14:02;;;;;;;3.17;1.43;;;;;;;;;;5046330;28;20049;-65
2024/01/30 14:16:28;;;;;;;3.93;1.40;;;;;;;;;;5029858;28;20588;-65
2024/01/30 14:18:54;;;;;;;4.17;1.37;;;;;;;;;;5046197;28;20553;-65
2024/01/30 14:21:23;;;;;;;5.97;1.60;;;;;;;;;;5030472;28;20152;-65
2024/01/30 14:23:49;;;;;;;4.93;1.77;;;;;;;;;;5028673;28;20077;-65
2024/01/30 14:26:16;;;;;;;4.33;2.17;;;;;;;;;;5030404;28;20041;-65
2024/01/30 14:28:43;;;;;;;6.73;1.30;;;;;;;;;;5030258;28;20045;-65
2024/01/30 14:31:09;;;;;;;4.13;1.20;;;;;;;;;;5039833;28;20111;-65
2024/01/30 14:33:35;;;;;;;3.50;1.40;;;;;;;;;;5044729;28;20041;-65
2024/01/30 14:36:01;;;;;;;4.93;1.80;;;;;;;;;;5049028;28;20449;-65
2024/01/30 14:38:28;;;;;;;4.13;1.43;;;;;;;;;;5047781;28;20071;-65
2024/01/30 14:40:54;;;;;;;2.87;1.50;;;;;;;;;;5047372;28;20057;-65
2024/01/30 14:43:20;;;;;;;3.30;1.90;;;;;;;;;;5048547;28;20041;-65
2024/01/30 14:45:49;;;;;;;5.50;1.87;;;;;;;;;;5049621;28;20040;-65
2024/01/30 14:48:15;;;;;;;3.73;1.67;;;;;;;;;;5048527;28;20114;-65
2024/01/30 14:50:41;;;;;;;5.80;2.27;;;;;;;;;;5048151;28;20041;-64